Time;durP1;ratioP1;P1;durP2;ratioP2;P2;SDS_P1;SDS_P2;PMS_P1;PMS_P2;Temp;Humidity;BMP_temperature;BMP_pressure;BME280_temperature;BME280_humidity;BME280_pressure;Samples;Min_cycle;Max_cycle;Signal;HPM_P1;HPM_P2
2021/09/21 00:01:11;;;;;;;3.95;3.62;;;;;;;8.41;89.52;99439.68;1666287;83;21840;-70
2021/09/21 00:03:37;;;;;;;4.35;3.95;;;;;;;8.40;89.52;99446.09;1683994;83;21072;-70
2021/09/21 00:06:06;;;;;;;6.65;4.55;;;;;;;8.37;89.39;99438.02;1692526;83;21522;-70
2021/09/21 00:08:35;;;;;;;4.55;4.08;;;;;;;8.34;89.28;99446.55;1669985;83;21127;-79
2021/09/21 00:11:04;;;;;;;6.12;3.70;;;;;;;8.33;89.41;99445.44;1674140;84;20999;-80
2021/09/21 00:13:31;;;;;;;4.37;3.60;;;;;;;8.30;89.29;99440.02;1683015;83;21152;-80
2021/09/21 00:15:59;;;;;;;4.47;4.08;;;;;;;8.30;89.38;99452.08;1683453;84;21009;-75
2021/09/21 00:18:25;;;;;;;4.78;4.33;;;;;;;8.27;89.37;99445.84;1688220;83;21008;-72
2021/09/21 00:20:53;;;;;;;6.72;4.35;;;;;;;8.22;89.62;99441.73;1680572;84;21038;-73
2021/09/21 00:23:20;;;;;;;4.22;3.83;;;;;;;8.20;89.92;99446.53;1691095;83;21581;-73
2021/09/21 00:25:48;;;;;;;4.25;3.77;;;;;;;8.15;90.24;99439.74;1690472;83;20988;-76
2021/09/21 00:28:14;;;;;;;9.38;4.78;;;;;;;8.12;90.53;99438.86;1692340;83;21483;-73
2021/09/21 00:30:47;;;;;;;4.08;3.77;;;;;;;8.09;90.81;99441.51;1690404;83;20953;-74
2021/09/21 00:33:16;;;;;;;4.95;4.10;;;;;;;8.09;91.00;99440.17;1691013;84;21207;-77
2021/09/21 00:35:37;;;;;;;4.33;3.92;;;;;;;8.12;91.12;99449.05;1677632;85;21087;-74
2021/09/21 00:38:04;;;;;;;6.47;3.47;;;;;;;8.13;90.97;99452.55;1667568;84;22039;-74
2021/09/21 00:40:30;;;;;;;5.58;4.28;;;;;;;8.12;90.93;99445.03;1666415;84;21019;-74
2021/09/21 00:43:03;;;;;;;3.90;3.60;;;;;;;8.11;90.89;99442.06;1692989;84;21505;-75
2021/09/21 00:45:30;;;;;;;3.80;3.37;;;;;;;8.12;91.02;99450.92;1670983;84;21055;-74
2021/09/21 00:47:57;;;;;;;3.12;2.92;;;;;;;8.11;91.08;99440.72;1683129;83;21051;-77
2021/09/21 00:50:27;;;;;;;3.20;3.00;;;;;;;8.12;91.10;99445.03;1715753;83;21508;-78
2021/09/21 00:52:56;;;;;;;3.37;3.05;;;;;;;8.13;91.13;99449.87;1725522;82;20975;-78
2021/09/21 00:55:24;;;;;;;3.70;3.40;;;;;;;8.14;91.22;99457.67;1725666;83;20963;-80
2021/09/21 00:57:50;;;;;;;4.33;3.65;;;;;;;8.17;91.15;99446.99;1717998;82;20939;-82
2021/09/21 01:00:19;;;;;;;3.25;2.92;;;;;;;8.16;90.75;99449.38;1713449;82;21087;-75
2021/09/21 01:02:47;;;;;;;2.77;2.10;;;;;;;8.16;90.74;99450.20;1725614;82;21793;-74
2021/09/21 01:05:13;;;;;;;3.37;2.77;;;;;;;8.14;90.43;99447.48;1725689;82;21492;-73
2021/09/21 01:07:41;;;;;;;3.30;2.92;;;;;;;8.11;90.17;99451.44;1694248;84;20983;-74
2021/09/21 01:10:11;;;;;;;2.72;2.52;;;;;;;8.10;89.82;99451.70;1686141;83;21024;-72
2021/09/21 01:12:38;;;;;;;6.10;2.67;;;;;;;8.10;89.47;99454.38;1679341;84;21536;-73
2021/09/21 01:15:07;;;;;;;4.12;2.70;;;;;;;8.10;89.37;99453.03;1650297;85;21119;-72
2021/09/21 01:17:34;;;;;;;2.52;2.40;;;;;;;8.08;89.08;99454.61;1680059;84;21062;-72
2021/09/21 01:20:01;;;;;;;2.87;2.52;;;;;;;8.06;88.86;99457.22;1710794;83;21044;-72
2021/09/21 01:22:28;;;;;;;3.65;2.75;;;;;;;8.06;88.83;99456.70;1705620;81;21512;-73
2021/09/21 01:24:56;;;;;;;3.77;2.58;;;;;;;8.05;88.87;99461.80;1704297;84;21077;-74
2021/09/21 01:27:23;;;;;;;2.58;2.37;;;;;;;8.07;88.83;99455.66;1656208;84;22111;-75
2021/09/21 01:29:51;;;;;;;2.58;2.00;;;;;;;8.09;88.96;99460.26;1705542;83;21088;-73
2021/09/21 01:32:20;;;;;;;5.58;3.22;;;;;;;8.10;88.86;99463.75;1679426;84;21066;-72
2021/09/21 01:34:46;;;;;;;3.30;2.85;;;;;;;8.06;88.53;99463.39;1704092;84;21006;-74
2021/09/21 01:37:13;;;;;;;2.58;2.37;;;;;;;8.02;88.40;99456.08;1677742;84;21103;-76
2021/09/21 01:39:41;;;;;;;2.45;2.22;;;;;;;7.98;88.30;99466.98;1715232;83;21648;-77
2021/09/21 01:42:07;;;;;;;2.90;2.70;;;;;;;7.94;88.49;99465.31;1724574;83;21004;-79
2021/09/21 01:44:35;;;;;;;2.62;2.42;;;;;;;7.92;88.62;99460.70;1692826;83;21020;-74
2021/09/21 01:47:06;;;;;;;3.37;3.12;;;;;;;7.91;88.58;99464.46;1698554;83;21114;-76
2021/09/21 01:52:17;;;;;;;2.95;2.47;;;;;;;7.84;88.51;99468.60;1657316;84;21150;-77
2021/09/21 02:00:13;;;;;;;2.62;2.42;;;;;;;7.83;88.54;99464.81;1687245;83;21188;-76
2021/09/21 02:02:39;;;;;;;2.62;2.42;;;;;;;7.77;88.33;99465.23;1705820;84;21038;-75
2021/09/21 02:05:07;;;;;;;2.77;2.50;;;;;;;7.73;88.11;99469.44;1705937;84;21092;-76
2021/09/21 02:07:33;;;;;;;2.60;2.40;;;;;;;7.71;88.18;99476.91;1705870;84;21050;-76
2021/09/21 02:10:01;;;;;;;3.12;2.27;;;;;;;7.70;88.16;99465.91;1709263;83;21596;-77
2021/09/21 02:12:28;;;;;;;3.50;2.33;;;;;;;7.70;88.18;99470.45;1700971;83;20995;-76
2021/09/21 02:14:59;;;;;;;3.42;3.15;;;;;;;7.67;88.05;99466.91;1725619;83;21098;-75
2021/09/21 02:17:25;;;;;;;2.62;2.42;;;;;;;7.66;88.10;99470.11;1700627;83;21187;-74
2021/09/21 02:19:52;;;;;;;2.65;2.37;;;;;;;7.67;88.15;99472.27;1680654;83;21545;-74
2021/09/21 02:22:20;;;;;;;2.35;2.15;;;;;;;7.65;88.07;99473.83;1725506;83;21052;-74
2021/09/21 02:24:46;;;;;;;2.50;2.30;;;;;;;7.65;87.98;99471.67;1725662;82;20984;-74
2021/09/21 02:27:12;;;;;;;2.42;2.22;;;;;;;7.63;87.90;99473.77;1714261;82;21039;-74
2021/09/21 02:29:39;;;;;;;2.35;2.15;;;;;;;7.63;87.80;99473.77;1696650;83;21599;-74
2021/09/21 02:32:05;;;;;;;2.98;2.75;;;;;;;7.64;87.69;99482.91;1724881;83;21028;-74
2021/09/21 02:34:31;;;;;;;3.00;2.42;;;;;;;7.65;87.62;99467.14;1725829;83;21052;-75
2021/09/21 02:36:58;;;;;;;2.55;2.35;;;;;;;7.67;87.62;99476.28;1716669;83;21003;-73
2021/09/21 02:39:25;;;;;;;2.62;2.42;;;;;;;7.67;87.59;99477.63;1705311;83;21056;-73
2021/09/21 02:41:51;;;;;;;2.20;2.10;;;;;;;7.66;87.52;99474.65;1705470;83;21078;-75
2021/09/21 02:44:18;;;;;;;3.47;2.50;;;;;;;7.65;87.22;99476.51;1705553;83;21011;-74
2021/09/21 02:46:45;;;;;;;3.15;2.10;;;;;;;7.66;87.28;99482.67;1696988;84;21014;-75
2021/09/21 02:49:11;;;;;;;3.12;2.52;;;;;;;7.63;86.81;99489.82;1666641;85;21034;-73
2021/09/21 02:51:37;;;;;;;2.87;2.58;;;;;;;7.63;86.92;99480.45;1668709;84;21578;-74
2021/09/21 02:54:03;;;;;;;2.42;2.22;;;;;;;7.60;86.75;99483.61;1676168;85;21181;-74
2021/09/21 02:56:31;;;;;;;2.35;2.15;;;;;;;7.57;86.77;99474.73;1675347;84;21465;-75
2021/09/21 02:59:00;;;;;;;2.20;2.02;;;;;;;7.55;86.96;99482.98;1685400;84;21043;-74
2021/09/21 03:01:26;;;;;;;2.27;2.08;;;;;;;7.53;86.78;99485.06;1675757;84;20957;-73
2021/09/21 03:03:56;;;;;;;3.22;2.35;;;;;;;7.52;86.57;99485.32;1691936;84;21013;-74
2021/09/21 03:06:25;;;;;;;2.17;1.98;;;;;;;7.52;86.60;99478.63;1668724;84;21802;-74
2021/09/21 03:08:55;;;;;;;2.52;2.30;;;;;;;7.51;86.37;99471.12;1647461;85;21033;-74
2021/09/21 03:11:24;;;;;;;2.22;2.10;;;;;;;7.52;86.40;99467.92;1682941;84;21516;-74
2021/09/21 03:19:24;;;;;;;2.33;2.12;;;;;;;7.52;86.18;99481.30;1698669;84;21170;-74
2021/09/21 03:21:53;;;;;;;2.98;2.20;;;;;;;7.53;86.13;99486.95;1707892;83;20989;-75
2021/09/21 03:24:21;;;;;;;2.17;1.98;;;;;;;7.53;85.96;99495.77;1705028;83;20996;-75
2021/09/21 03:26:47;;;;;;;1.90;1.80;;;;;;;7.53;85.48;99499.78;1666095;85;21080;-73
2021/09/21 03:29:13;;;;;;;1.77;1.67;;;;;;;7.53;85.35;99489.08;1668949;85;21045;-74
2021/09/21 03:31:40;;;;;;;2.15;1.92;;;;;;;7.52;85.09;99484.80;1708412;83;21251;-73
2021/09/21 03:34:07;;;;;;;1.50;1.40;;;;;;;7.50;84.99;99495.44;1673875;84;21012;-73
2021/09/21 03:36:33;;;;;;;2.52;1.70;;;;;;;7.49;84.62;99493.80;1669104;85;20995;-75
2021/09/21 03:38:59;;;;;;;2.37;1.47;;;;;;;7.49;84.25;99505.84;1649327;86;21098;-75
2021/09/21 03:41:27;;;;;;;1.90;1.80;;;;;;;7.49;84.24;99493.27;1668931;86;21126;-75
2021/09/21 03:43:53;;;;;;;2.33;2.12;;;;;;;7.48;83.93;99501.56;1694428;83;21937;-74
2021/09/21 03:46:20;;;;;;;1.35;1.22;;;;;;;7.45;83.84;99503.64;1697735;84;21013;-75
2021/09/21 03:48:47;;;;;;;2.30;2.10;;;;;;;7.45;83.56;99486.77;1678684;84;21520;-74
2021/09/21 03:51:13;;;;;;;2.08;1.25;;;;;;;7.48;83.63;99508.25;1662291;84;20997;-74
2021/09/21 03:53:40;;;;;;;1.70;1.60;;;;;;;7.51;83.61;99497.88;1700561;82;21003;-74
2021/09/21 03:56:07;;;;;;;1.85;1.60;;;;;;;7.53;83.54;99497.66;1673014;85;21961;-73
2021/09/21 03:58:34;;;;;;;1.72;1.60;;;;;;;7.51;83.51;99495.20;1675897;85;20935;-74
2021/09/21 04:01:00;;;;;;;3.35;1.50;;;;;;;7.49;83.30;99501.30;1675875;85;21030;-74
2021/09/21 04:03:27;;;;;;;3.95;2.15;;;;;;;7.49;83.41;99491.94;1693544;83;21162;-73
2021/09/21 04:05:54;;;;;;;3.30;1.70;;;;;;;7.50;83.31;99483.39;1705538;82;21010;-74
2021/09/21 04:08:24;;;;;;;2.22;1.62;;;;;;;7.51;83.29;99493.87;1705428;84;21553;-76
2021/09/21 04:10:50;;;;;;;3.35;1.70;;;;;;;7.54;83.17;99491.23;1679376;84;21032;-74
2021/09/21 04:13:18;;;;;;;2.17;1.98;;;;;;;7.53;82.33;99489.08;1709385;83;20992;-74
2021/09/21 04:15:45;;;;;;;1.95;1.82;;;;;;;7.53;82.32;99497.11;1705725;84;21026;-74
2021/09/21 04:18:12;;;;;;;1.90;1.80;;;;;;;7.50;82.07;99486.06;1705726;84;21587;-73
2021/09/21 04:20:40;;;;;;;1.70;1.60;;;;;;;7.49;82.05;99494.61;1705540;83;21105;-75
2021/09/21 04:23:08;;;;;;;1.92;1.82;;;;;;;7.48;82.10;99509.06;1697474;83;21060;-75
2021/09/21 04:25:35;;;;;;;1.75;1.65;;;;;;;7.48;82.22;99483.65;1679205;84;21051;-75
2021/09/21 04:28:01;;;;;;;2.72;1.90;;;;;;;7.48;82.32;99506.91;1705690;84;21136;-75
2021/09/21 04:30:29;;;;;;;2.22;1.50;;;;;;;7.45;82.41;99493.46;1705268;84;20983;-75
2021/09/21 04:32:57;;;;;;;1.85;1.50;;;;;;;7.45;82.51;99506.31;1704808;83;20971;-76
2021/09/21 04:35:24;;;;;;;1.55;1.45;;;;;;;7.46;82.31;99507.14;1719394;83;21010;-76
2021/09/21 04:37:50;;;;;;;3.77;1.60;;;;;;;7.44;81.89;99524.75;1722955;83;21032;-75
2021/09/21 04:40:16;;;;;;;3.25;2.72;;;;;;;7.44;81.56;99506.55;1698051;83;21024;-75
2021/09/21 04:42:44;;;;;;;2.72;1.82;;;;;;;7.44;81.75;99508.70;1723206;83;21101;-75
2021/09/21 04:45:12;;;;;;;2.02;1.80;;;;;;;7.42;81.63;99508.14;1718623;83;21155;-75
2021/09/21 04:47:39;;;;;;;2.22;1.50;;;;;;;7.43;81.86;99485.66;1722933;83;21043;-75
2021/09/21 04:50:09;;;;;;;5.37;2.22;;;;;;;7.43;82.12;99495.02;1723042;82;21482;-74
2021/09/21 04:52:37;;;;;;;1.82;1.72;;;;;;;7.43;82.28;99493.69;1719333;83;20956;-73
2021/09/21 04:55:07;;;;;;;5.25;1.98;;;;;;;7.45;82.45;99494.80;1684750;84;21062;-76
2021/09/21 04:57:34;;;;;;;2.02;1.90;;;;;;;7.47;82.58;99494.05;1705654;83;21307;-74
2021/09/21 05:00:00;;;;;;;2.22;1.80;;;;;;;7.50;82.74;99500.27;1705636;84;21223;-75
2021/09/21 05:02:28;;;;;;;1.75;1.65;;;;;;;7.49;82.56;99488.45;1667011;83;21029;-73
2021/09/21 05:04:54;;;;;;;2.35;2.15;;;;;;;7.50;82.60;99492.75;1690141;84;21048;-73
2021/09/21 05:07:22;;;;;;;1.60;1.50;;;;;;;7.50;82.86;99489.56;1696460;84;21042;-71
2021/09/21 05:09:51;;;;;;;3.00;1.55;;;;;;;7.51;82.90;99493.87;1702553;83;21585;-74
2021/09/21 05:12:19;;;;;;;2.67;2.40;;;;;;;7.52;82.92;99500.86;1703209;83;20911;-75
2021/09/21 05:14:46;;;;;;;2.05;1.90;;;;;;;7.53;82.84;99494.98;1692862;83;21610;-74
2021/09/21 05:17:14;;;;;;;4.75;2.55;;;;;;;7.53;82.85;99506.47;1696562;84;20977;-72
2021/09/21 05:19:41;;;;;;;2.10;1.62;;;;;;;7.54;83.00;99500.60;1683496;84;21120;-70
2021/09/21 05:22:09;;;;;;;5.08;1.82;;;;;;;7.56;83.06;99497.17;1703623;84;21007;-74
2021/09/21 05:24:36;;;;;;;3.62;1.98;;;;;;;7.59;83.25;99506.88;1711246;83;21093;-76
2021/09/21 05:27:03;;;;;;;1.98;1.87;;;;;;;7.61;83.02;99502.12;1713604;83;21677;-73
2021/09/21 05:29:31;;;;;;;2.00;1.90;;;;;;;7.62;83.25;99502.94;1678549;83;20971;-74
2021/09/21 05:31:59;;;;;;;2.52;2.33;;;;;;;7.60;83.56;99506.36;1692742;84;21040;-75
2021/09/21 05:34:26;;;;;;;2.42;2.22;;;;;;;7.59;83.96;99506.06;1705829;84;21347;-77
2021/09/21 05:36:52;;;;;;;1.75;1.65;;;;;;;7.59;84.24;99508.73;1693669;84;21489;-76
2021/09/21 05:39:19;;;;;;;4.78;2.10;;;;;;;7.61;84.53;99494.61;1667517;84;21102;-78
2021/09/21 05:41:47;;;;;;;4.95;2.35;;;;;;;7.63;84.61;99511.23;1675712;85;21016;-77
2021/09/21 05:44:13;;;;;;;2.95;2.75;;;;;;;7.60;84.68;99503.16;1708208;83;21505;-77
2021/09/21 05:46:41;;;;;;;2.33;2.12;;;;;;;7.58;84.82;99495.88;1714907;83;20951;-78
2021/09/21 05:49:08;;;;;;;1.92;1.82;;;;;;;7.57;84.93;99492.13;1674839;84;21011;-77
2021/09/21 05:51:36;;;;;;;3.25;2.95;;;;;;;7.59;85.17;99499.38;1663723;85;20992;-78
2021/09/21 05:54:05;;;;;;;1.92;1.82;;;;;;;7.61;84.98;99500.78;1698486;84;20948;-77
2021/09/21 05:56:31;;;;;;;3.00;2.40;;;;;;;7.67;84.97;99499.85;1671201;84;21561;-78
2021/09/21 05:58:59;;;;;;;3.98;2.45;;;;;;;7.73;84.86;99500.22;1684982;84;20906;-77
2021/09/21 06:01:26;;;;;;;3.62;2.15;;;;;;;7.79;84.94;99507.31;1704422;84;21092;-79
2021/09/21 06:03:54;;;;;;;4.87;2.42;;;;;;;7.83;84.74;99511.67;1703823;84;21046;-79
2021/09/21 06:06:22;;;;;;;3.25;1.80;;;;;;;7.86;84.48;99490.58;1688363;84;20979;-78
2021/09/21 06:08:49;;;;;;;1.82;1.70;;;;;;;7.91;84.29;99493.91;1656574;84;21032;-75
2021/09/21 06:11:27;;;;;;;1.80;1.70;;;;;;;7.94;82.95;99503.33;1692961;84;21195;-78
2021/09/21 06:13:50;;;;;;;2.80;1.70;;;;;;;7.93;82.46;99501.17;1668908;84;21044;-79
2021/09/21 06:16:18;;;;;;;2.35;1.70;;;;;;;7.94;82.28;99497.45;1671081;84;21016;-79
2021/09/21 06:18:46;;;;;;;1.77;1.55;;;;;;;7.91;81.58;99510.50;1693255;84;20921;-76
2021/09/21 06:21:13;;;;;;;5.20;1.67;;;;;;;7.89;81.46;99515.56;1692594;84;21079;-76
2021/09/21 06:23:41;;;;;;;1.60;1.50;;;;;;;7.87;81.23;99508.28;1692606;84;20996;-79
2021/09/21 06:26:09;;;;;;;3.92;2.92;;;;;;;7.89;81.39;99502.70;1696388;84;21056;-76
2021/09/21 06:28:35;;;;;;;2.10;1.60;;;;;;;7.88;81.18;99510.44;1671035;84;21039;-78
2021/09/21 06:31:02;;;;;;;1.65;1.55;;;;;;;7.86;80.82;99505.31;1693081;84;21020;-78
2021/09/21 06:33:29;;;;;;;1.42;1.22;;;;;;;7.85;80.98;99514.41;1665008;84;21641;-77
2021/09/21 06:35:55;;;;;;;1.47;1.37;;;;;;;7.85;81.02;99502.89;1680682;84;20944;-78
2021/09/21 06:38:22;;;;;;;1.70;1.60;;;;;;;7.88;80.92;99503.74;1663559;85;21075;-78
2021/09/21 06:40:48;;;;;;;1.65;1.55;;;;;;;7.92;80.92;99518.80;1642465;86;21567;-77
2021/09/21 06:43:15;;;;;;;1.82;1.72;;;;;;;7.93;80.49;99513.22;1663673;84;21075;-74
2021/09/21 06:45:42;;;;;;;2.40;1.72;;;;;;;7.95;80.57;99508.97;1673282;84;21012;-76
2021/09/21 06:48:08;;;;;;;1.95;1.80;;;;;;;7.93;80.27;99525.27;1670308;84;21261;-79
2021/09/21 06:50:36;;;;;;;3.65;1.72;;;;;;;7.93;80.35;99511.06;1698613;84;21047;-77
2021/09/21 06:53:03;;;;;;;1.30;1.20;;;;;;;7.94;80.57;99522.06;1674404;84;21023;-77
2021/09/21 06:55:29;;;;;;;2.55;1.70;;;;;;;7.97;80.57;99521.58;1695299;84;21044;-78
2021/09/21 06:57:57;;;;;;;2.15;1.92;;;;;;;7.99;80.55;99502.09;1668892;84;21063;-78
2021/09/21 07:00:26;;;;;;;3.10;1.82;;;;;;;8.00;80.60;99511.23;1725865;82;21001;-78
2021/09/21 07:02:53;;;;;;;1.60;1.50;;;;;;;8.03;80.74;99534.85;1729189;82;21521;-77
2021/09/21 07:05:21;;;;;;;1.92;1.65;;;;;;;8.03;80.78;99513.43;1720543;83;21051;-79
2021/09/21 07:07:50;;;;;;;5.05;1.90;;;;;;;8.01;80.67;99540.17;1675704;84;21486;-76
2021/09/21 07:10:18;;;;;;;1.72;1.62;;;;;;;7.98;80.45;99511.98;1686823;84;21083;-78
2021/09/21 07:12:46;;;;;;;1.70;1.60;;;;;;;8.00;80.88;99530.50;1642316;86;21984;-79
2021/09/21 07:15:13;;;;;;;2.40;1.60;;;;;;;8.03;80.97;99517.97;1719053;83;21059;-78
2021/09/21 07:17:40;;;;;;;4.95;3.37;;;;;;;8.03;81.05;99521.98;1695781;83;21101;-76
2021/09/21 07:20:10;;;;;;;1.87;1.65;;;;;;;8.02;80.93;99526.52;1718909;82;21039;-75
2021/09/21 07:22:38;;;;;;;2.22;1.70;;;;;;;7.99;80.60;99541.73;1721083;83;21595;-81
2021/09/21 07:25:06;;;;;;;1.98;1.55;;;;;;;7.95;80.67;99551.30;1720959;83;21403;-77
2021/09/21 07:27:32;;;;;;;1.60;1.50;;;;;;;7.91;80.76;99543.97;1718524;83;20995;-75
2021/09/21 07:29:59;;;;;;;1.67;1.57;;;;;;;7.86;80.71;99541.45;1718392;83;20949;-74
2021/09/21 07:32:25;;;;;;;3.52;1.47;;;;;;;7.83;80.96;99533.09;1718914;83;21571;-75
2021/09/21 07:34:53;;;;;;;2.50;2.30;;;;;;;7.81;81.37;99541.89;1718556;83;20976;-76
2021/09/21 07:37:22;;;;;;;1.72;1.62;;;;;;;7.81;81.83;99536.54;1717186;83;21617;-75
2021/09/21 07:39:48;;;;;;;3.45;2.10;;;;;;;7.82;82.04;99534.95;1703910;84;21053;-74
2021/09/21 07:42:17;;;;;;;1.92;1.80;;;;;;;7.84;82.33;99537.40;1688280;84;20981;-77
2021/09/21 07:44:45;;;;;;;2.30;2.10;;;;;;;7.86;82.61;99544.69;1681404;84;21007;-79
2021/09/21 07:47:13;;;;;;;2.92;1.77;;;;;;;7.82;82.72;99542.98;1688106;85;21055;-72
2021/09/21 07:49:40;;;;;;;1.92;1.82;;;;;;;7.79;82.81;99539.44;1702053;84;21941;-76
2021/09/21 07:52:06;;;;;;;5.00;1.98;;;;;;;7.77;83.01;99540.74;1655236;85;21603;-76
2021/09/21 07:54:32;;;;;;;2.02;1.85;;;;;;;7.78;83.28;99546.36;1683372;84;20946;-76
2021/09/21 07:57:01;;;;;;;1.82;1.72;;;;;;;7.80;83.32;99545.09;1668550;84;21097;-74
2021/09/21 07:59:27;;;;;;;2.12;1.80;;;;;;;7.80;83.42;99549.11;1689357;84;21084;-76
2021/09/21 08:01:53;;;;;;;4.65;1.92;;;;;;;7.83;83.56;99554.50;1688827;84;22401;-76
2021/09/21 08:04:21;;;;;;;3.22;2.12;;;;;;;7.79;83.61;99538.63;1683033;84;21038;-75
2021/09/21 08:06:48;;;;;;;3.87;1.98;;;;;;;7.75;83.92;99550.86;1685041;84;21013;-75
2021/09/21 08:09:14;;;;;;;2.40;2.17;;;;;;;7.72;84.08;99553.47;1684011;84;21519;-72
2021/09/21 08:11:43;;;;;;;3.12;1.75;;;;;;;7.71;84.25;99543.83;1683477;84;21016;-73
2021/09/21 08:14:09;;;;;;;5.78;1.80;;;;;;;7.73;84.59;99547.59;1688751;84;21079;-72
2021/09/21 08:16:38;;;;;;;2.37;2.05;;;;;;;7.73;84.72;99544.39;1677053;84;21044;-74
2021/09/21 08:19:08;;;;;;;2.72;2.27;;;;;;;7.74;85.10;99546.55;1693236;84;21041;-71
2021/09/21 08:21:34;;;;;;;2.45;2.25;;;;;;;7.74;85.38;99550.56;1690794;84;21001;-72
2021/09/21 08:24:05;;;;;;;2.30;2.10;;;;;;;7.73;85.72;99552.95;1688049;84;21524;-73
2021/09/21 08:26:32;;;;;;;2.08;1.70;;;;;;;7.70;86.20;99544.88;1670768;84;21090;-73
2021/09/21 08:28:58;;;;;;;4.03;2.37;;;;;;;7.67;86.57;99546.69;1676275;85;21193;-74
2021/09/21 08:31:25;;;;;;;2.02;1.87;;;;;;;7.70;86.79;99549.41;1682975;84;21047;-75
2021/09/21 08:33:51;;;;;;;3.00;1.95;;;;;;;7.71;87.03;99547.03;1637283;85;21104;-73
2021/09/21 08:36:20;;;;;;;2.42;2.22;;;;;;;7.73;87.16;99549.74;1661978;84;21053;-74
2021/09/21 08:38:46;;;;;;;2.80;1.37;;;;;;;7.72;87.18;99551.34;1675724;85;21837;-72
2021/09/21 08:41:13;;;;;;;1.82;1.57;;;;;;;7.73;87.13;99541.72;1677214;84;21045;-74
2021/09/21 08:43:39;;;;;;;1.70;1.60;;;;;;;7.74;86.94;99543.35;1649709;85;21564;-74
2021/09/21 08:46:05;;;;;;;1.70;1.60;;;;;;;7.74;86.91;99541.19;1676096;85;21092;-73
2021/09/21 08:48:32;;;;;;;1.50;1.40;;;;;;;7.75;87.01;99550.86;1679045;84;21084;-74
2021/09/21 08:50:58;;;;;;;2.15;1.95;;;;;;;7.77;86.85;99552.23;1680956;82;21077;-74
2021/09/21 08:53:25;;;;;;;1.70;1.60;;;;;;;7.78;86.44;99549.86;1733053;82;21080;-73
2021/09/21 08:55:53;;;;;;;2.55;2.02;;;;;;;7.77;86.32;99548.22;1714666;82;20996;-73
2021/09/21 08:58:24;;;;;;;1.72;1.62;;;;;;;7.81;86.39;99543.23;1732338;82;21774;-73
2021/09/21 09:00:50;;;;;;;2.40;2.20;;;;;;;7.85;86.30;99562.61;1716433;82;21000;-75
2021/09/21 09:03:17;;;;;;;1.82;1.72;;;;;;;7.90;85.79;99553.87;1703486;82;21068;-72
2021/09/21 09:05:47;;;;;;;1.62;1.52;;;;;;;7.91;85.23;99550.15;1715329;83;21011;-75
2021/09/21 09:08:15;;;;;;;1.82;1.62;;;;;;;7.92;85.00;99552.27;1684142;83;21068;-76
2021/09/21 09:10:41;;;;;;;1.82;1.45;;;;;;;7.94;84.66;99556.36;1693693;83;21004;-76
2021/09/21 09:13:18;;;;;;;2.40;1.80;;;;;;;7.96;84.64;99556.92;1716930;83;21049;-74
2021/09/21 09:15:55;;;;;;;4.80;1.50;;;;;;;7.99;84.09;99561.82;1695943;83;21074;-73
2021/09/21 09:18:26;;;;;;;4.33;1.32;;;;;;;8.03;84.15;99553.60;1704861;83;20945;-75
2021/09/21 09:20:53;;;;;;;1.87;1.75;;;;;;;8.09;84.23;99571.41;1704949;84;21032;-75
2021/09/21 09:23:20;;;;;;;2.25;2.05;;;;;;;8.14;83.99;99564.00;1719429;83;21509;-74
2021/09/21 09:25:48;;;;;;;1.85;1.27;;;;;;;8.18;83.84;99565.97;1728982;83;20999;-76
2021/09/21 09:28:23;;;;;;;1.32;1.10;;;;;;;8.22;83.43;99571.14;1698908;83;21899;-76
2021/09/21 09:30:50;;;;;;;2.50;1.67;;;;;;;8.26;83.20;99575.48;1715604;83;21292;-75
2021/09/21 09:33:17;;;;;;;1.40;1.30;;;;;;;8.30;82.90;99577.48;1708250;82;20988;-74
2021/09/21 09:35:45;;;;;;;1.40;1.30;;;;;;;8.32;82.72;99597.35;1701118;83;20996;-74
2021/09/21 09:38:20;;;;;;;5.92;1.35;;;;;;;8.30;81.67;99570.78;1708864;82;21058;-75
2021/09/21 09:40:53;;;;;;;1.10;1.10;;;;;;;8.25;80.73;99579.21;1711449;83;21490;-78
2021/09/21 09:43:25;;;;;;;1.57;1.47;;;;;;;8.21;80.85;99578.88;1715992;83;21567;-75
2021/09/21 09:45:54;;;;;;;1.82;1.65;;;;;;;8.21;80.83;99575.38;1691687;84;21070;-73
2021/09/21 09:48:22;;;;;;;2.17;2.00;;;;;;;8.23;80.75;99587.51;1703669;82;21047;-72
2021/09/21 09:50:53;;;;;;;2.35;2.15;;;;;;;8.25;80.83;99570.66;1704258;83;21556;-72
2021/09/21 09:53:25;;;;;;;7.12;2.70;;;;;;;8.26;80.98;99570.95;1676969;83;21095;-71
2021/09/21 09:55:57;;;;;;;1.32;1.22;;;;;;;8.31;81.10;99572.42;1708841;83;20938;-70
2021/09/21 09:58:24;;;;;;;1.57;1.47;;;;;;;8.33;81.11;99582.09;1705355;84;20908;-68
2021/09/21 10:00:54;;;;;;;1.30;1.20;;;;;;;8.28;80.65;99577.41;1705277;84;21095;-69
2021/09/21 10:03:19;;;;;;;3.87;2.08;;;;;;;8.26;80.74;99575.48;1719135;83;20979;-77
2021/09/21 10:05:45;;;;;;;2.27;1.55;;;;;;;8.27;80.85;99581.96;1703009;83;21197;-70
2021/09/21 10:08:12;;;;;;;1.60;1.50;;;;;;;8.29;80.93;99575.03;1700614;82;20967;-73
2021/09/21 10:10:40;;;;;;;1.82;1.52;;;;;;;8.32;81.11;99581.27;1703162;83;21003;-74
2021/09/21 10:13:14;;;;;;;2.55;1.62;;;;;;;8.34;80.87;99580.52;1685414;84;21014;-78
2021/09/21 10:15:42;;;;;;;3.00;1.70;;;;;;;8.34;80.70;99570.33;1706446;83;21559;-82
2021/09/21 10:18:18;;;;;;;1.65;1.55;;;;;;;8.36;80.88;99599.02;1709145;83;21171;-81
2021/09/21 10:20:57;;;;;;;1.32;1.22;;;;;;;8.40;80.84;99583.57;1684595;83;20938;-81
2021/09/21 10:23:33;;;;;;;1.42;1.32;;;;;;;8.40;80.55;99596.97;1701001;84;21030;-79
2021/09/21 10:26:19;;;;;;;1.20;1.10;;;;;;;8.38;80.19;99589.71;1650545;85;21532;-79
2021/09/21 10:28:49;;;;;;;1.57;1.47;;;;;;;8.30;80.64;99586.86;1675070;83;21059;-76
2021/09/21 10:31:20;;;;;;;1.45;1.35;;;;;;;8.24;80.78;99589.14;1706162;83;22124;-80
2021/09/21 10:33:47;;;;;;;1.22;1.22;;;;;;;8.23;81.16;99593.39;1693884;84;21085;-81
2021/09/21 10:36:30;;;;;;;5.85;1.90;;;;;;;8.22;81.47;99584.53;1702348;83;21003;-82
2021/09/21 10:39:07;;;;;;;2.45;1.77;;;;;;;8.23;81.71;99586.69;1710451;82;21501;-87
2021/09/21 10:41:47;;;;;;;3.80;1.30;;;;;;;8.27;82.02;99585.16;1681609;84;21098;-85
2021/09/21 10:44:14;;;;;;;1.80;1.70;;;;;;;8.27;82.12;99590.52;1703508;84;21192;-85
2021/09/21 10:46:52;;;;;;;1.60;1.50;;;;;;;8.30;81.97;99598.10;1711364;83;20892;-86
2021/09/21 10:49:33;;;;;;;1.77;1.67;;;;;;;8.30;81.80;99604.28;1680799;84;21021;-81
2021/09/21 10:52:03;;;;;;;1.72;1.50;;;;;;;8.33;81.60;99603.53;1668322;84;21519;-82
2021/09/21 10:54:42;;;;;;;9.10;2.10;;;;;;;8.35;81.70;99593.37;1674424;84;21597;-86
2021/09/21 10:57:15;;;;;;;1.72;1.62;;;;;;;8.36;81.66;99597.16;1684890;84;21058;-87
2021/09/21 10:59:54;;;;;;;2.25;1.45;;;;;;;8.40;81.67;99594.29;1688215;84;21120;-77
2021/09/21 11:02:25;;;;;;;2.75;1.60;;;;;;;8.40;81.48;99599.65;1694690;84;20940;-80
2021/09/21 11:04:51;;;;;;;1.90;1.80;;;;;;;8.41;81.69;99597.78;1643757;86;21075;-78
2021/09/21 11:07:19;;;;;;;1.77;1.67;;;;;;;8.46;82.00;99603.25;1681632;84;21501;-76
2021/09/21 11:09:54;;;;;;;2.45;1.77;;;;;;;8.52;82.19;99600.44;1688501;84;21102;-78
2021/09/21 11:12:24;;;;;;;3.30;1.40;;;;;;;8.56;82.09;99606.13;1694871;83;21041;-77
2021/09/21 11:14:54;;;;;;;2.17;1.67;;;;;;;8.54;82.06;99598.32;1650926;85;21517;-90
2021/09/21 11:17:23;;;;;;;1.40;1.30;;;;;;;8.50;82.44;99601.19;1673532;85;21037;-77
2021/09/21 11:19:56;;;;;;;1.85;1.47;;;;;;;8.45;82.80;99600.27;1687992;84;21041;-78
2021/09/21 11:22:29;;;;;;;1.82;1.62;;;;;;;8.40;82.87;99600.98;1682273;84;20959;-79
2021/09/21 11:25:11;;;;;;;1.67;1.57;;;;;;;8.37;83.18;99608.17;1694362;84;21581;-82
2021/09/21 11:27:41;;;;;;;2.62;2.42;;;;;;;8.35;83.28;99606.25;1668576;85;21588;-81
2021/09/21 11:30:13;;;;;;;2.33;2.17;;;;;;;8.33;83.60;99615.06;1648313;85;21011;-77
2021/09/21 11:32:44;;;;;;;1.92;1.82;;;;;;;8.30;83.86;99599.44;1665594;86;21054;-88
2021/09/21 11:35:14;;;;;;;1.60;1.45;;;;;;;8.32;84.32;99616.11;1690596;84;22706;-90
2021/09/21 11:37:52;;;;;;;9.93;3.70;;;;;;;8.31;84.37;99607.78;1694829;84;21526;-90
2021/09/21 11:40:28;;;;;;;3.25;1.40;;;;;;;8.33;84.42;99607.03;1694680;84;21033;-84
2021/09/21 11:42:56;;;;;;;1.82;1.70;;;;;;;8.37;84.45;99606.83;1680951;84;21071;-81
2021/09/21 11:45:26;;;;;;;2.35;1.82;;;;;;;8.38;84.42;99616.51;1678543;84;46739;-77
2021/09/21 11:47:53;;;;;;;2.30;1.50;;;;;;;8.36;84.37;99613.23;1656214;85;22136;-78
2021/09/21 11:50:29;;;;;;;2.05;1.87;;;;;;;8.34;84.50;99619.37;1654625;83;21060;-75
2021/09/21 11:52:59;;;;;;;1.40;1.25;;;;;;;8.35;84.69;99612.95;1689889;83;21059;-81
2021/09/21 11:55:30;;;;;;;1.92;1.72;;;;;;;8.40;84.82;99612.23;1719732;83;21578;-81
2021/09/21 11:57:56;;;;;;;3.37;2.30;;;;;;;8.41;84.97;99617.89;1721195;83;21587;-81
2021/09/21 12:00:35;;;;;;;2.30;2.10;;;;;;;8.39;83.71;99623.50;1698295;83;21168;-90